Time;durP1;ratioP1;P1;durP2;ratioP2;P2;SDS_P1;SDS_P2;PMS_P1;PMS_P2;Temp;Humidity;BMP_temperature;BMP_pressure;BME280_temperature;BME280_humidity;BME280_pressure;Samples;Min_cycle;Max_cycle;Signal;HPM_P1;HPM_P2
2021/12/02 00:01:26;;;;;;;5.22;1.55;;;;;;;3.57;91.49;99842.94;5014091;28;20053;-71
2021/12/02 00:03:51;;;;;;;11.55;2.33;;;;;;;3.61;91.59;99849.00;5007700;28;20061;-71
2021/12/02 00:06:18;;;;;;;4.78;1.80;;;;;;;3.64;91.33;99851.50;5012882;28;20064;-71
2021/12/02 00:08:44;;;;;;;12.65;2.90;;;;;;;3.65;91.80;99852.38;5027356;28;20541;-71
2021/12/02 00:11:10;;;;;;;6.95;1.70;;;;;;;3.64;91.88;99846.13;5014507;28;20493;-75
2021/12/02 00:21:15;;;;;;;4.15;1.48;;;;;;;3.67;91.89;99847.75;5017691;28;20124;-71
2021/12/02 00:23:51;;;;;;;6.30;1.80;;;;;;;3.66;92.00;99835.28;5012098;28;20036;-71
2021/12/02 00:26:19;;;;;;;10.88;1.60;;;;;;;3.63;91.87;99840.81;5027757;28;20040;-71
2021/12/02 00:28:50;;;;;;;6.20;1.50;;;;;;;3.65;91.95;99834.41;5025545;28;20035;-71
2021/12/02 00:31:20;;;;;;;3.92;1.50;;;;;;;3.65;91.65;99845.19;5012413;28;20021;-74
2021/12/02 00:33:49;;;;;;;9.57;1.60;;;;;;;3.64;91.57;99840.75;5028029;28;20091;-75
2021/12/02 00:36:15;;;;;;;7.25;1.42;;;;;;;3.63;92.05;99838.13;5018975;28;20421;-71
2021/12/02 00:38:42;;;;;;;3.03;1.48;;;;;;;3.61;92.07;99827.50;5015118;28;20038;-75
2021/12/02 00:41:15;;;;;;;10.10;1.60;;;;;;;3.57;91.87;99828.63;5026246;28;20029;-74
2021/12/02 00:43:41;;;;;;;4.25;1.52;;;;;;;3.56;92.05;99830.44;5024279;28;20022;-71
2021/12/02 00:46:10;;;;;;;8.77;1.38;;;;;;;3.54;92.03;99832.38;5018407;28;20037;-74
2021/12/02 00:48:36;;;;;;;6.20;1.40;;;;;;;3.54;92.23;99840.44;5025667;28;20109;-74
2021/12/02 00:51:03;;;;;;;4.30;1.00;;;;;;;3.51;92.13;99832.56;5026393;28;20120;-75
2021/12/02 00:53:31;;;;;;;9.73;2.47;;;;;;;3.49;92.28;99837.13;5007511;28;20557;-74
2021/12/02 00:56:03;;;;;;;8.05;1.30;;;;;;;3.50;92.10;99830.81;5024805;28;20021;-74
2021/12/02 00:58:30;;;;;;;8.82;1.13;;;;;;;3.49;92.18;99833.59;5026881;28;20399;-71
2021/12/02 01:00:56;;;;;;;6.80;1.15;;;;;;;3.48;92.37;99834.56;5015414;28;20035;-71
2021/12/02 01:03:23;;;;;;;8.82;1.55;;;;;;;3.47;92.36;99833.69;5026781;28;20139;-71
2021/12/02 01:05:49;;;;;;;5.20;1.25;;;;;;;3.49;92.67;99838.97;5018496;28;20075;-72
2021/12/02 01:08:14;;;;;;;7.00;1.65;;;;;;;3.49;92.69;99836.28;5025815;28;20021;-74
2021/12/02 01:10:41;;;;;;;4.88;1.60;;;;;;;3.51;92.79;99837.94;5022392;28;20068;-71
2021/12/02 01:13:06;;;;;;;2.33;1.30;;;;;;;3.53;92.80;99843.22;5023743;28;20025;-72
2021/12/02 01:15:32;;;;;;;4.25;1.63;;;;;;;3.53;92.86;99843.22;5018635;28;20543;-75
2021/12/02 01:17:57;;;;;;;7.32;1.35;;;;;;;3.51;92.56;99843.31;5020885;28;20420;-74
2021/12/02 01:20:23;;;;;;;4.32;1.23;;;;;;;3.53;92.62;99843.22;5025621;28;20037;-72
2021/12/02 01:22:49;;;;;;;5.88;1.80;;;;;;;3.49;92.82;99838.97;5025281;28;20029;-76
2021/12/02 01:25:18;;;;;;;5.93;1.83;;;;;;;3.51;92.75;99843.31;5017503;28;20037;-74
2021/12/02 01:27:47;;;;;;;7.10;1.67;;;;;;;3.50;92.71;99838.91;5031274;28;20083;-71
2021/12/02 01:30:13;;;;;;;3.13;1.02;;;;;;;3.55;92.66;99849.38;5029616;28;20040;-71
2021/12/02 01:32:40;;;;;;;10.98;1.42;;;;;;;3.57;93.12;99852.81;5030226;28;20033;-71
2021/12/02 01:35:07;;;;;;;7.15;2.00;;;;;;;3.60;92.84;99851.78;5027202;28;20389;-76
2021/12/02 01:37:32;;;;;;;4.03;1.10;;;;;;;3.62;92.95;99848.03;5027035;28;20065;-74
2021/12/02 01:39:59;;;;;;;6.22;1.35;;;;;;;3.61;92.97;99850.81;5030717;28;20348;-74
2021/12/02 01:42:27;;;;;;;6.05;1.30;;;;;;;3.66;93.12;99851.41;5030991;28;20027;-71
2021/12/02 01:44:55;;;;;;;6.43;1.17;;;;;;;3.66;92.80;99854.97;5028764;28;20079;-75
2021/12/02 01:47:25;;;;;;;4.20;0.98;;;;;;;3.67;92.80;99858.53;5045776;28;20080;-74
2021/12/02 01:49:54;;;;;;;3.85;1.02;;;;;;;3.64;92.44;99859.59;5030966;28;20376;-74
2021/12/02 01:52:26;;;;;;;5.95;1.30;;;;;;;3.64;92.38;99858.69;5027841;28;20017;-71
2021/12/02 01:55:05;;;;;;;2.95;1.10;;;;;;;3.66;92.26;99867.56;5037861;28;20025;-71
2021/12/02 01:57:34;;;;;;;3.33;1.13;;;;;;;3.66;92.52;99872.94;5029482;28;20500;-72
2021/12/02 02:00:11;;;;;;;2.60;1.70;;;;;;;3.64;92.25;99866.75;5018097;28;20025;-75
2021/12/02 02:02:38;;;;;;;4.40;1.02;;;;;;;3.57;91.28;99871.66;5045151;28;20079;-71
2021/12/02 02:05:08;;;;;;;5.72;1.33;;;;;;;3.49;91.83;99858.66;5027800;28;20026;-71
2021/12/02 02:07:36;;;;;;;3.50;1.00;;;;;;;3.43;91.88;99860.84;5024019;28;20435;-76
2021/12/02 02:10:03;;;;;;;3.72;1.00;;;;;;;3.31;91.97;99863.31;5029984;28;20036;-72
2021/12/02 02:12:28;;;;;;;5.28;0.90;;;;;;;3.21;92.00;99859.41;5026524;28;20040;-75
2021/12/02 02:14:55;;;;;;;4.55;1.35;;;;;;;3.13;92.12;99856.31;5028559;28;20026;-74
2021/12/02 02:17:25;;;;;;;4.22;1.33;;;;;;;3.03;92.39;99855.97;5027995;28;20112;-76
2021/12/02 02:19:52;;;;;;;12.07;1.20;;;;;;;2.96;92.52;99859.09;5030091;28;20025;-75
2021/12/02 02:22:22;;;;;;;4.03;1.15;;;;;;;2.85;92.24;99856.16;5029348;28;20025;-72
2021/12/02 02:24:47;;;;;;;1.88;1.00;;;;;;;2.76;92.42;99854.84;5024302;28;20539;-75
2021/12/02 02:27:12;;;;;;;2.55;1.20;;;;;;;2.70;92.96;99857.88;5028106;28;20137;-71
2021/12/02 02:29:38;;;;;;;6.22;1.20;;;;;;;2.70;93.22;99856.03;5021191;28;20469;-75
2021/12/02 02:32:03;;;;;;;4.70;1.30;;;;;;;2.68;92.85;99849.03;5029203;28;20041;-74
2021/12/02 02:34:29;;;;;;;3.97;1.27;;;;;;;2.61;92.82;99847.63;5027096;28;20068;-72
2021/12/02 02:36:56;;;;;;;3.75;1.20;;;;;;;2.53;93.04;99848.94;5027257;28;20505;-71
2021/12/02 02:39:22;;;;;;;2.85;1.20;;;;;;;2.47;93.32;99854.66;5028114;28;20154;-70
2021/12/02 02:41:56;;;;;;;4.22;1.20;;;;;;;2.48;93.62;99855.53;5028855;28;20067;-71
2021/12/02 02:44:23;;;;;;;4.03;1.40;;;;;;;2.47;93.80;99853.78;5022838;28;20099;-76
2021/12/02 02:46:48;;;;;;;3.47;1.17;;;;;;;2.49;93.99;99857.25;5042639;28;20018;-73
2021/12/02 02:49:14;;;;;;;1.23;1.00;;;;;;;2.58;94.06;99837.97;5027053;28;20095;-71
2021/12/02 02:51:41;;;;;;;1.55;1.20;;;;;;;2.64;93.69;99842.09;5028393;28;20021;-71
2021/12/02 02:54:09;;;;;;;2.72;1.50;;;;;;;2.63;93.48;99849.31;5029828;28;20048;-71
2021/12/02 02:56:41;;;;;;;3.53;1.10;;;;;;;2.60;93.42;99845.91;5021496;28;20595;-74
2021/12/02 03:01:52;;;;;;;2.83;0.98;;;;;;;2.60;93.26;99852.16;5028324;28;20025;-72
2021/12/02 03:07:09;;;;;;;3.67;1.10;;;;;;;2.58;93.09;99850.50;5028214;28;20037;-71
2021/12/02 03:09:51;;;;;;;3.97;1.02;;;;;;;2.55;93.11;99848.84;5028006;28;20116;-71
2021/12/02 03:12:27;;;;;;;2.65;1.10;;;;;;;2.57;93.41;99851.47;5011191;28;20030;-74
2021/12/02 03:17:29;;;;;;;3.90;1.27;;;;;;;2.60;93.65;99865.56;5027808;28;20029;-75
2021/12/02 03:19:54;;;;;;;5.97;1.00;;;;;;;2.64;93.43;99871.66;5022641;28;20029;-74
2021/12/02 03:22:19;;;;;;;2.05;0.93;;;;;;;2.67;93.36;99875.03;5027658;28;20021;-71
2021/12/02 03:24:45;;;;;;;1.38;1.00;;;;;;;2.69;93.18;99874.94;5026579;28;20036;-75
2021/12/02 03:27:10;;;;;;;7.25;1.50;;;;;;;2.70;93.17;99872.16;5023399;28;20069;-74
2021/12/02 03:29:36;;;;;;;6.28;1.05;;;;;;;2.73;93.33;99876.50;5009611;28;20049;-71
2021/12/02 03:32:02;;;;;;;4.65;1.20;;;;;;;2.73;93.00;99866.63;5023977;28;20453;-74
2021/12/02 03:34:27;;;;;;;2.40;1.10;;;;;;;2.74;92.92;99875.53;5027605;28;20030;-75
2021/12/02 03:36:53;;;;;;;5.22;1.70;;;;;;;2.75;93.07;99877.28;5020781;28;20454;-74
2021/12/02 03:39:18;;;;;;;1.58;1.00;;;;;;;2.78;92.89;99875.28;5028257;28;20124;-75
2021/12/02 03:41:44;;;;;;;2.50;1.05;;;;;;;2.79;93.24;99879.69;5028079;28;20488;-73
2021/12/02 03:44:10;;;;;;;4.40;1.60;;;;;;;2.78;92.42;99888.72;5027028;28;20055;-71
2021/12/02 03:46:38;;;;;;;5.78;2.08;;;;;;;2.80;92.98;99883.28;5027866;28;20056;-75
2021/12/02 03:49:03;;;;;;;7.05;1.15;;;;;;;2.79;92.93;99885.06;5026041;28;20584;-71
2021/12/02 03:51:29;;;;;;;4.90;1.38;;;;;;;2.80;93.13;99885.97;5025087;28;20025;-70
2021/12/02 03:53:55;;;;;;;1.45;0.90;;;;;;;2.82;93.32;99884.03;5027634;28;20703;-74
2021/12/02 03:56:21;;;;;;;8.07;1.25;;;;;;;2.79;93.11;99882.38;5027571;28;20101;-71
2021/12/02 03:58:48;;;;;;;3.38;1.30;;;;;;;2.79;92.92;99879.69;5014577;28;20052;-71
2021/12/02 04:01:14;;;;;;;8.65;1.00;;;;;;;2.81;92.81;99883.19;5018031;28;20030;-75
2021/12/02 04:03:40;;;;;;;9.88;1.42;;;;;;;2.78;92.53;99877.97;5022092;28;20037;-71
2021/12/02 04:06:07;;;;;;;7.85;1.40;;;;;;;2.80;92.31;99877.91;5025589;28;20013;-75
2021/12/02 04:08:42;;;;;;;6.10;1.08;;;;;;;2.79;92.44;99881.53;5027401;28;20124;-75
2021/12/02 04:13:42;;;;;;;7.18;1.45;;;;;;;2.75;92.68;99861.16;5026714;28;20500;-73
2021/12/02 04:16:14;;;;;;;4.03;0.98;;;;;;;2.78;92.67;99863.69;5027262;28;20029;-71
2021/12/02 04:18:39;;;;;;;6.00;1.23;;;;;;;2.75;92.64;99864.75;5027584;28;20033;-71
2021/12/02 04:21:05;;;;;;;6.53;1.60;;;;;;;2.72;92.70;99866.72;5026491;28;20322;-71
2021/12/02 04:23:30;;;;;;;2.97;1.00;;;;;;;2.69;92.62;99865.06;5025015;28;20035;-70
2021/12/02 04:25:55;;;;;;;5.35;1.20;;;;;;;2.66;92.92;99861.66;5025918;28;20190;-75
2021/12/02 04:28:20;;;;;;;5.10;0.77;;;;;;;2.65;92.94;99868.84;5022681;28;20394;-76
2021/12/02 04:30:46;;;;;;;2.85;0.90;;;;;;;2.63;92.93;99868.09;5016959;28;20043;-72
2021/12/02 04:33:11;;;;;;;3.30;0.90;;;;;;;2.72;92.97;99890.88;5027271;28;20041;-74
2021/12/02 04:35:36;;;;;;;2.33;0.80;;;;;;;2.74;93.22;99886.28;5026980;28;20373;-74
2021/12/02 04:38:02;;;;;;;6.15;0.70;;;;;;;2.74;93.20;99902.41;5025078;28;20026;-75
2021/12/02 04:40:27;;;;;;;1.75;0.90;;;;;;;2.74;92.33;99905.94;5025158;28;20036;-75
2021/12/02 04:42:53;;;;;;;5.78;1.00;;;;;;;2.74;93.13;99894.34;5027441;28;20023;-70
2021/12/02 04:45:19;;;;;;;4.78;0.90;;;;;;;2.75;92.52;99909.50;5016660;28;20087;-76
2021/12/02 04:47:44;;;;;;;3.42;1.00;;;;;;;2.74;92.12;99913.13;5026969;28;20029;-73
2021/12/02 04:50:10;;;;;;;5.47;0.82;;;;;;;2.72;92.55;99921.28;5027269;28;20025;-71
2021/12/02 04:52:36;;;;;;;4.22;0.95;;;;;;;2.66;92.20;99915.38;5021737;28;20390;-74
2021/12/02 04:55:02;;;;;;;2.53;1.05;;;;;;;2.61;92.56;99904.91;5022212;28;20025;-75
2021/12/02 04:57:27;;;;;;;7.18;0.93;;;;;;;2.58;92.60;99905.06;5018413;28;20037;-71
2021/12/02 04:59:52;;;;;;;1.92;0.98;;;;;;;2.51;92.48;99909.88;5026897;28;20123;-74
2021/12/02 05:02:18;;;;;;;3.80;0.88;;;;;;;2.47;92.78;99902.09;5031253;28;20025;-72
2021/12/02 05:04:43;;;;;;;5.07;1.10;;;;;;;2.47;93.33;99907.47;5027579;28;20096;-74
2021/12/02 05:07:08;;;;;;;4.30;1.20;;;;;;;2.49;93.53;99908.25;5024127;28;20120;-71
2021/12/02 05:09:34;;;;;;;9.52;1.70;;;;;;;2.51;93.59;99909.03;5031525;28;20048;-75
2021/12/02 05:11:59;;;;;;;6.47;0.88;;;;;;;2.53;93.41;99916.06;5016493;28;20073;-74
2021/12/02 05:14:24;;;;;;;6.60;1.17;;;;;;;2.57;93.30;99924.81;5030275;28;20095;-71
2021/12/02 05:16:50;;;;;;;5.72;1.02;;;;;;;2.55;93.28;99929.38;5030718;28;20028;-71
2021/12/02 05:19:15;;;;;;;2.83;0.80;;;;;;;2.61;93.43;99939.81;5029869;28;20037;-74
2021/12/02 05:21:40;;;;;;;7.85;1.15;;;;;;;2.59;93.38;99941.69;5028638;28;20061;-71
2021/12/02 05:24:06;;;;;;;5.20;1.27;;;;;;;2.54;92.11;99946.47;5022150;28;20120;-74
2021/12/02 05:26:32;;;;;;;4.85;1.17;;;;;;;2.46;91.69;99935.25;5021905;28;20492;-70
2021/12/02 05:28:58;;;;;;;2.72;0.88;;;;;;;2.38;91.64;99930.31;5028004;28;20532;-70
2021/12/02 05:31:23;;;;;;;3.17;0.70;;;;;;;2.35;91.75;99935.84;5030513;28;20151;-71
2021/12/02 05:33:49;;;;;;;5.95;0.90;;;;;;;2.36;92.19;99934.03;5023427;28;20030;-74
2021/12/02 05:36:14;;;;;;;2.55;1.00;;;;;;;2.35;93.01;99926.94;5025379;28;20394;-71
2021/12/02 05:38:40;;;;;;;4.07;1.20;;;;;;;2.33;92.44;99929.66;5030345;28;20033;-75
2021/12/02 05:41:06;;;;;;;4.20;1.08;;;;;;;2.27;92.00;99916.59;5027337;28;20029;-71
2021/12/02 05:43:31;;;;;;;3.47;0.95;;;;;;;2.26;92.45;99930.97;5030655;28;20049;-74
2021/12/02 05:45:56;;;;;;;1.83;1.13;;;;;;;2.27;92.73;99928.19;5014312;28;20025;-76
2021/12/02 05:48:22;;;;;;;1.85;0.85;;;;;;;2.27;92.17;99932.69;5026409;28;20107;-75
2021/12/02 05:50:49;;;;;;;4.47;1.05;;;;;;;2.24;91.98;99938.25;5027283;28;20443;-76
2021/12/02 05:53:14;;;;;;;4.80;0.90;;;;;;;2.22;92.79;99948.16;5018282;28;20440;-75
2021/12/02 05:55:39;;;;;;;4.70;0.90;;;;;;;2.21;92.87;99950.00;5028705;28;20032;-74
2021/12/02 05:58:07;;;;;;;0.95;0.70;;;;;;;2.20;92.73;99947.41;5029556;28;20057;-74
2021/12/02 06:00:36;;;;;;;2.60;0.80;;;;;;;2.18;92.72;99938.53;5019553;28;20025;-74
2021/12/02 06:03:01;;;;;;;1.20;0.65;;;;;;;2.15;92.59;99936.91;5025882;28;20029;-72
2021/12/02 06:05:27;;;;;;;0.60;0.50;;;;;;;2.13;92.63;99928.03;5029626;28;20705;-72
2021/12/02 06:07:56;;;;;;;0.60;0.57;;;;;;;2.07;92.06;99933.75;5026696;28;20025;-74
2021/12/02 06:10:22;;;;;;;2.35;0.63;;;;;;;1.98;91.69;99934.22;5026815;28;20389;-71
2021/12/02 06:12:47;;;;;;;1.00;0.70;;;;;;;1.91;92.74;99928.31;5029274;28;20028;-72
2021/12/02 06:15:13;;;;;;;3.10;0.70;;;;;;;1.87;92.38;99937.47;5026718;28;20033;-72
2021/12/02 06:17:39;;;;;;;5.97;2.80;;;;;;;1.79;92.29;99929.81;5011546;28;20076;-71
2021/12/02 06:20:06;;;;;;;1.50;0.60;;;;;;;1.75;92.35;99935.41;5023232;28;20048;-71
2021/12/02 06:22:32;;;;;;;2.25;0.80;;;;;;;1.68;92.48;99939.31;5022982;28;20039;-74
2021/12/02 06:27:52;;;;;;;1.20;0.70;;;;;;;1.60;92.74;99946.91;5021924;28;20026;-76
2021/12/02 06:30:23;;;;;;;4.72;0.50;;;;;;;1.64;93.34;99957.41;5020081;28;20025;-75
2021/12/02 06:32:48;;;;;;;0.93;0.50;;;;;;;1.64;93.04;99959.22;5016978;28;20029;-74
2021/12/02 06:35:13;;;;;;;1.73;0.50;;;;;;;1.62;93.26;99951.22;5026078;28;20071;-72
2021/12/02 06:37:39;;;;;;;2.97;0.60;;;;;;;1.60;93.13;99944.22;5023510;28;20048;-72
2021/12/02 06:40:06;;;;;;;3.30;0.60;;;;;;;1.52;93.05;99950.81;5029238;28;20491;-72
2021/12/02 06:42:31;;;;;;;1.20;0.70;;;;;;;1.47;93.23;99949.31;5027653;28;20025;-72
2021/12/02 06:44:59;;;;;;;0.70;0.60;;;;;;;1.49;93.58;99956.34;5013236;28;20033;-71
2021/12/02 06:47:32;;;;;;;1.88;0.60;;;;;;;1.52;93.68;99963.34;5017614;28;20469;-77
2021/12/02 06:50:01;;;;;;;1.00;0.43;;;;;;;1.57;93.22;99972.03;5028674;28;20507;-71
2021/12/02 06:52:27;;;;;;;2.67;0.70;;;;;;;1.61;93.95;99988.84;5027605;28;20078;-71
2021/12/02 06:54:55;;;;;;;1.02;0.63;;;;;;;1.61;93.84;99989.72;5028869;28;20112;-71
2021/12/02 06:57:21;;;;;;;6.65;0.85;;;;;;;1.59;93.27;99996.97;5029054;28;20381;-70
2021/12/02 06:59:47;;;;;;;2.22;0.50;;;;;;;1.52;93.11;100000.88;5019146;28;20037;-76
2021/12/02 07:02:12;;;;;;;3.45;0.50;;;;;;;1.47;93.23;99989.53;5025470;28;20421;-71
2021/12/02 07:04:38;;;;;;;1.25;0.57;;;;;;;1.48;93.55;100000.16;5028825;28;20483;-71
2021/12/02 07:07:03;;;;;;;2.97;0.65;;;;;;;1.45;93.49;99991.44;5023951;28;20398;-76
2021/12/02 07:09:29;;;;;;;1.58;0.80;;;;;;;1.47;93.76;99994.88;5013654;28;20026;-71
2021/12/02 07:11:54;;;;;;;3.35;1.33;;;;;;;1.52;94.00;100003.56;5024201;28;20466;-72
2021/12/02 07:14:21;;;;;;;3.17;2.03;;;;;;;1.59;94.06;100009.50;5020800;28;20453;-71
2021/12/02 07:16:46;;;;;;;1.90;1.30;;;;;;;1.61;93.83;100003.13;5028054;28;20025;-70
2021/12/02 07:19:12;;;;;;;3.03;1.00;;;;;;;1.66;93.70;100016.28;5027340;28;20080;-70
2021/12/02 07:21:39;;;;;;;5.80;1.48;;;;;;;1.70;94.02;100018.75;5027454;28;20039;-71
2021/12/02 07:24:13;;;;;;;1.92;1.20;;;;;;;1.74;93.95;100025.69;5024216;28;20388;-77
2021/12/02 07:26:40;;;;;;;1.33;1.10;;;;;;;1.77;93.86;100019.28;5028333;28;20290;-70
2021/12/02 07:29:07;;;;;;;8.38;1.48;;;;;;;1.79;93.90;100007.56;5026320;28;20034;-74
2021/12/02 07:31:34;;;;;;;2.97;0.90;;;;;;;1.82;93.54;100017.28;5028099;28;20059;-71
2021/12/02 07:34:02;;;;;;;5.97;1.15;;;;;;;1.83;93.39;100035.09;5026585;28;20026;-77
2021/12/02 07:36:29;;;;;;;4.68;1.23;;;;;;;1.84;93.21;100022.56;5017846;28;20042;-73
2021/12/02 07:38:55;;;;;;;1.05;0.82;;;;;;;1.81;92.94;100023.56;5025063;28;20033;-71
2021/12/02 07:41:21;;;;;;;7.50;1.20;;;;;;;1.79;92.89;100023.66;5007817;28;20030;-73
2021/12/02 07:43:46;;;;;;;2.13;0.90;;;;;;;1.81;93.21;100036.97;5020725;28;20074;-74
2021/12/02 07:46:12;;;;;;;4.90;0.98;;;;;;;1.82;93.21;100022.66;5023773;28;20385;-71
2021/12/02 07:48:37;;;;;;;3.45;0.85;;;;;;;1.83;93.07;100027.06;5009782;28;20022;-71
2021/12/02 07:51:08;;;;;;;7.10;1.10;;;;;;;1.84;93.15;100036.84;5022276;28;20099;-75
2021/12/02 07:53:34;;;;;;;4.40;1.08;;;;;;;1.84;93.22;100035.97;5025078;28;20029;-76
2021/12/02 07:56:03;;;;;;;5.20;0.90;;;;;;;1.84;93.06;100033.28;5026428;28;20021;-71
2021/12/02 07:58:30;;;;;;;6.18;1.10;;;;;;;1.82;93.00;100035.16;5011227;28;20041;-72
2021/12/02 08:01:00;;;;;;;6.68;0.90;;;;;;;1.81;93.16;100044.16;5022938;28;20385;-74
2021/12/02 08:03:29;;;;;;;5.47;1.10;;;;;;;1.80;93.18;100043.28;5014288;28;20108;-75
2021/12/02 08:05:55;;;;;;;2.85;1.08;;;;;;;1.75;93.33;100034.59;5007056;28;21013;-72
2021/12/02 08:08:20;;;;;;;2.25;1.00;;;;;;;1.78;93.36;100048.75;5020456;28;20048;-76
2021/12/02 08:10:46;;;;;;;5.97;1.30;;;;;;;1.79;93.53;100054.97;5013924;28;20051;-75
2021/12/02 08:13:14;;;;;;;4.22;1.27;;;;;;;1.74;93.31;100052.50;5027334;28;20017;-71
2021/12/02 08:15:40;;;;;;;3.40;1.23;;;;;;;1.70;93.17;100055.41;5012822;28;20038;-71
2021/12/02 08:18:06;;;;;;;4.25;1.38;;;;;;;1.65;93.23;100055.63;5023693;28;20032;-76
2021/12/02 08:20:32;;;;;;;3.35;1.00;;;;;;;1.60;93.59;100056.81;5027716;28;20033;-73
2021/12/02 08:22:59;;;;;;;5.05;1.23;;;;;;;1.52;93.55;100058.03;5023056;28;20033;-71
2021/12/02 08:25:26;;;;;;;4.93;1.10;;;;;;;1.50;93.61;100061.75;5023759;28;20029;-75
2021/12/02 08:27:52;;;;;;;4.10;1.27;;;;;;;1.47;93.79;100065.44;5023314;28;20036;-70
2021/12/02 08:30:21;;;;;;;2.95;1.10;;;;;;;1.45;93.86;100059.28;5016240;28;20029;-71
2021/12/02 08:32:47;;;;;;;4.53;2.08;;;;;;;1.49;94.00;100059.97;5024392;28;20120;-71
2021/12/02 08:35:13;;;;;;;4.75;1.88;;;;;;;1.50;93.96;100061.75;5008478;28;20160;-72
2021/12/02 08:37:44;;;;;;;2.78;1.20;;;;;;;1.51;94.07;100069.69;5016649;28;20076;-75
2021/12/02 08:40:11;;;;;;;5.20;1.70;;;;;;;1.52;94.19;100063.41;5016136;28;20466;-75
2021/12/02 08:42:36;;;;;;;3.45;1.75;;;;;;;1.53;94.00;100066.94;5015758;28;20370;-71
2021/12/02 08:45:03;;;;;;;2.92;1.80;;;;;;;1.56;94.01;100084.69;5013759;28;20060;-75
2021/12/02 08:47:28;;;;;;;5.50;1.60;;;;;;;1.65;94.37;100097.66;5010051;28;20040;-72
2021/12/02 08:49:55;;;;;;;6.28;1.60;;;;;;;1.83;95.13;100095.91;5026101;28;20566;-71
2021/12/02 08:52:22;;;;;;;3.78;1.20;;;;;;;2.10;94.97;100113.34;5022832;28;20393;-76
2021/12/02 08:54:49;;;;;;;6.18;1.92;;;;;;;2.23;94.18;100122.50;5024479;28;20047;-76
2021/12/02 08:57:14;;;;;;;4.93;1.65;;;;;;;2.30;93.86;100133.81;5027261;28;20037;-71
2021/12/02 08:59:42;;;;;;;7.07;1.98;;;;;;;2.30;93.56;100140.03;5013255;28;20026;-74
2021/12/02 09:02:08;;;;;;;11.05;2.45;;;;;;;2.30;93.10;100140.03;5017090;28;20496;-76
2021/12/02 09:04:33;;;;;;;12.93;2.13;;;;;;;2.29;93.32;100140.13;5022869;28;20030;-72
2021/12/02 09:06:58;;;;;;;3.83;2.22;;;;;;;2.30;93.54;100145.41;5025045;28;20029;-71
2021/12/02 09:09:26;;;;;;;6.80;1.50;;;;;;;2.30;93.12;100136.50;5019041;28;20385;-71
2021/12/02 09:11:51;;;;;;;4.40;1.73;;;;;;;2.35;93.41;100147.88;5025258;28;20029;-73
2021/12/02 09:14:16;;;;;;;13.50;2.17;;;;;;;2.36;93.39;100140.69;5019319;28;20110;-70
2021/12/02 09:16:42;;;;;;;3.88;1.50;;;;;;;2.41;93.48;100154.75;5042144;28;20040;-75
2021/12/02 09:19:07;;;;;;;8.10;2.17;;;;;;;2.40;92.33;100150.31;5010993;28;20036;-74
2021/12/02 09:21:32;;;;;;;3.53;1.73;;;;;;;2.40;92.78;100150.31;5025309;28;20577;-71
2021/12/02 09:23:58;;;;;;;8.93;2.88;;;;;;;2.38;92.27;100149.50;5026150;28;20029;-71
2021/12/02 09:26:23;;;;;;;5.68;1.38;;;;;;;2.37;92.83;100164.75;5017877;28;20033;-71
2021/12/02 09:28:53;;;;;;;5.20;2.05;;;;;;;2.38;92.38;100162.94;5021785;28;20096;-73
2021/12/02 09:31:22;;;;;;;9.77;2.50;;;;;;;2.38;92.83;100162.94;5009423;28;20029;-74
2021/12/02 09:33:48;;;;;;;5.70;1.70;;;;;;;2.40;92.42;100161.94;5027248;28;20045;-71
2021/12/02 09:36:16;;;;;;;6.15;1.95;;;;;;;2.43;92.24;100158.22;5015386;28;20085;-74
2021/12/02 09:38:41;;;;;;;9.98;2.00;;;;;;;2.44;91.73;100170.69;5024771;28;20029;-71
2021/12/02 09:41:06;;;;;;;7.95;1.50;;;;;;;2.43;92.20;100159.09;5018737;28;20536;-74
2021/12/02 09:43:32;;;;;;;4.60;1.67;;;;;;;2.52;92.50;100166.69;5036011;28;20037;-75
2021/12/02 09:45:57;;;;;;;2.83;1.50;;;;;;;2.58;92.60;100170.00;5007560;28;20029;-74
2021/12/02 09:48:22;;;;;;;4.85;1.30;;;;;;;2.62;91.69;100168.91;5026215;28;20227;-75
2021/12/02 09:50:54;;;;;;;10.50;2.08;;;;;;;2.62;91.85;100163.53;5015931;28;20026;-74
2021/12/02 09:53:23;;;;;;;4.85;1.60;;;;;;;2.64;92.51;100159.81;5023072;28;20033;-71
2021/12/02 09:58:26;;;;;;;4.20;1.40;;;;;;;2.69;92.32;100173.00;5027210;28;20033;-75
2021/12/02 10:03:32;;;;;;;4.80;1.73;;;;;;;2.67;92.05;100166.88;5013974;28;20042;-75
2021/12/02 10:06:07;;;;;;;4.45;1.70;;;;;;;2.72;92.49;100167.50;5017869;28;20061;-71
2021/12/02 10:08:59;;;;;;;5.55;1.38;;;;;;;2.75;92.13;100172.69;5029207;28;20067;-71
2021/12/02 10:11:41;;;;;;;6.35;2.00;;;;;;;2.81;92.06;100185.81;5013979;28;20038;-71
2021/12/02 10:14:14;;;;;;;4.43;1.35;;;;;;;2.84;90.90;100182.09;5017574;28;20025;-70
2021/12/02 10:16:43;;;;;;;3.55;1.35;;;;;;;2.84;90.17;100180.28;5020294;28;20030;-71
2021/12/02 10:19:10;;;;;;;5.82;1.63;;;;;;;2.79;91.12;100176.97;5019913;28;20025;-71
2021/12/02 10:22:07;;;;;;;5.95;1.38;;;;;;;2.83;89.93;100191.97;5015526;28;20041;-71
2021/12/02 10:24:41;;;;;;;5.20;1.45;;;;;;;2.84;89.95;100182.97;5021164;28;20388;-71
2021/12/02 10:27:06;;;;;;;5.07;1.33;;;;;;;2.93;90.10;100203.13;5017724;28;20037;-70
2021/12/02 10:29:35;;;;;;;2.10;1.10;;;;;;;2.97;87.96;100204.69;5025489;28;20033;-71
2021/12/02 10:32:18;;;;;;;2.33;1.17;;;;;;;2.98;89.46;100201.06;5027359;28;20032;-71
2021/12/02 10:34:53;;;;;;;4.57;1.92;;;;;;;2.99;90.38;100201.00;5018860;28;20040;-71
2021/12/02 10:37:21;;;;;;;3.35;1.10;;;;;;;3.04;90.88;100195.38;5012014;28;20137;-72
2021/12/02 10:39:53;;;;;;;2.95;1.50;;;;;;;3.13;91.30;100205.66;5013087;28;20080;-74
2021/12/02 10:42:21;;;;;;;4.88;1.10;;;;;;;3.18;90.96;100200.91;5022221;28;20029;-75
2021/12/02 10:44:46;;;;;;;8.75;1.65;;;;;;;3.23;90.16;100206.03;5026252;28;20039;-71
2021/12/02 10:47:14;;;;;;;5.43;1.20;;;;;;;3.28;90.17;100217.44;5007357;28;20033;-71
2021/12/02 10:49:46;;;;;;;4.03;1.30;;;;;;;3.27;89.54;100211.19;5026663;28;20021;-75
2021/12/02 10:52:16;;;;;;;6.05;1.55;;;;;;;3.30;89.94;100221.75;5029039;28;20049;-71
2021/12/02 10:54:44;;;;;;;5.38;1.55;;;;;;;3.41;89.99;100223.91;5017887;28;20033;-75
2021/12/02 10:57:18;;;;;;;3.47;1.33;;;;;;;3.58;90.64;100221.16;5014599;28;20021;-74
2021/12/02 10:59:55;;;;;;;4.68;1.63;;;;;;;3.68;89.66;100218.84;5029933;28;20030;-76
2021/12/02 11:02:24;;;;;;;3.53;1.30;;;;;;;3.83;88.56;100223.41;5020959;28;20208;-72
2021/12/02 11:05:03;;;;;;;3.00;1.10;;;;;;;3.91;86.69;100220.28;5011447;28;20104;-74
2021/12/02 11:07:34;;;;;;;2.65;1.17;;;;;;;3.97;88.35;100233.41;5025614;28;20053;-72
2021/12/02 11:10:03;;;;;;;8.77;1.20;;;;;;;3.88;87.23;100215.09;5016760;28;20397;-71
2021/12/02 11:12:35;;;;;;;5.57;1.77;;;;;;;3.85;87.88;100228.69;5027468;28;20053;-74
2021/12/02 11:15:06;;;;;;;2.75;1.10;;;;;;;3.76;88.22;100229.19;5020926;28;20025;-70
2021/12/02 11:17:37;;;;;;;2.08;0.90;;;;;;;3.68;87.80;100226.91;5017750;28;20021;-71
2021/12/02 11:20:06;;;;;;;4.40;1.50;;;;;;;3.63;88.22;100230.81;5020285;28;20087;-71
2021/12/02 11:22:32;;;;;;;1.05;0.68;;;;;;;3.55;87.54;100232.09;5016785;28;20026;-71
2021/12/02 11:24:58;;;;;;;2.08;0.88;;;;;;;3.49;86.97;100237.78;5013156;28;20021;-72
2021/12/02 11:27:42;;;;;;;0.93;0.80;;;;;;;3.48;88.66;100236.03;5014462;28;20057;-74
2021/12/02 11:30:21;;;;;;;2.25;0.90;;;;;;;3.53;87.24;100238.50;5015712;28;20052;-72
2021/12/02 11:32:52;;;;;;;2.35;0.90;;;;;;;3.66;89.25;100236.03;5011163;28;20026;-74
2021/12/02 11:35:19;;;;;;;2.25;0.98;;;;;;;3.86;86.35;100234.94;5014784;28;20052;-74
2021/12/02 11:37:48;;;;;;;1.38;0.88;;;;;;;4.00;87.51;100243.97;5027042;28;20081;-72
2021/12/02 11:40:24;;;;;;;2.20;0.65;;;;;;;4.12;87.57;100255.03;5025149;28;20576;-74
2021/12/02 11:42:51;;;;;;;3.40;0.90;;;;;;;4.27;87.31;100256.88;5011751;28;20026;-71
2021/12/02 11:45:20;;;;;;;2.35;0.73;;;;;;;4.42;86.99;100253.31;5008792;28;20033;-71
2021/12/02 11:47:46;;;;;;;0.95;0.82;;;;;;;4.52;85.54;100242.88;5019416;28;20071;-71
2021/12/02 11:50:13;;;;;;;1.63;0.82;;;;;;;4.49;85.77;100241.25;5013246;28;20037;-75
2021/12/02 11:52:41;;;;;;;1.85;0.90;;;;;;;4.43;86.00;100243.41;5020005;28;20109;-75
2021/12/02 11:55:12;;;;;;;4.40;1.40;;;;;;;4.38;86.64;100235.59;5027053;28;20393;-77
2021/12/02 11:57:37;;;;;;;1.75;0.65;;;;;;;4.34;85.58;100229.53;5027004;28;20052;-75
2021/12/02 12:00:08;;;;;;;0.80;0.50;;;;;;;4.20;84.75;100228.59;5019518;28;20034;-76
2021/12/02 12:02:33;;;;;;;2.05;0.80;;;;;;;3.99;86.10;100220.72;5027776;28;20031;-72
2021/12/02 12:05:03;;;;;;;3.13;0.80;;;;;;;3.80;85.90;100209.25;5025844;28;20037;-72
2021/12/02 12:07:42;;;;;;;1.13;0.60;;;;;;;3.75;86.85;100222.94;5023141;28;20033;-74